sensor_id;sensor_type;location;lat;lon;timestamp;temperature;humidity
60033;DHT22;45905;50.570;10.428;2022-11-11T00:02:22;5.00;99.90
60033;DHT22;45905;50.570;10.428;2022-11-11T00:05:07;4.90;99.90
60033;DHT22;45905;50.570;10.428;2022-11-11T00:07:55;4.80;99.90
60033;DHT22;45905;50.570;10.428;2022-11-11T00:10:44;4.80;99.90
60033;DHT22;45905;50.570;10.428;2022-11-11T00:13:30;4.70;99.90
60033;DHT22;45905;50.570;10.428;2022-11-11T00:16:18;4.70;99.90
60033;DHT22;45905;50.570;10.428;2022-11-11T00:19:05;4.70;99.90
60033;DHT22;45905;50.570;10.428;2022-11-11T00:22:21;4.70;99.90
60033;DHT22;45905;50.570;10.428;2022-11-11T00:25:25;4.70;99.90
60033;DHT22;45905;50.570;10.428;2022-11-11T00:28:12;4.70;99.90
60033;DHT22;45905;50.570;10.428;2022-11-11T00:31:05;4.70;99.90
60033;DHT22;45905;50.570;10.428;2022-11-11T00:33:52;4.70;99.90
60033;DHT22;45905;50.570;10.428;2022-11-11T00:36:38;4.70;99.90
60033;DHT22;45905;50.570;10.428;2022-11-11T00:39:29;4.70;99.90
60033;DHT22;45905;50.570;10.428;2022-11-11T00:42:14;4.70;99.90
60033;DHT22;45905;50.570;10.428;2022-11-11T00:45:00;4.80;99.90
60033;DHT22;45905;50.570;10.428;2022-11-11T00:47:45;4.70;99.90
60033;DHT22;45905;50.570;10.428;2022-11-11T00:50:49;4.70;99.90
60033;DHT22;45905;50.570;10.428;2022-11-11T00:53:43;4.60;99.90
60033;DHT22;45905;50.570;10.428;2022-11-11T00:56:29;4.60;99.90
60033;DHT22;45905;50.570;10.428;2022-11-11T00:59:15;4.60;99.90
60033;DHT22;45905;50.570;10.428;2022-11-11T01:02:00;4.60;99.90
60033;DHT22;45905;50.570;10.428;2022-11-11T01:04:46;4.50;99.90
60033;DHT22;45905;50.570;10.428;2022-11-11T01:07:32;4.50;99.90
60033;DHT22;45905;50.570;10.428;2022-11-11T01:10:19;4.40;99.90
60033;DHT22;45905;50.570;10.428;2022-11-11T01:13:32;4.40;99.90
60033;DHT22;45905;50.570;10.428;2022-11-11T01:16:23;4.40;99.90
60033;DHT22;45905;50.570;10.428;2022-11-11T01:19:10;4.50;99.90
60033;DHT22;45905;50.570;10.428;2022-11-11T01:21:56;4.40;99.90
60033;DHT22;45905;50.570;10.428;2022-11-11T01:24:42;4.50;99.90
60033;DHT22;45905;50.570;10.428;2022-11-11T01:27:28;4.50;99.90
60033;DHT22;45905;50.570;10.428;2022-11-11T01:30:13;4.50;99.90
60033;DHT22;45905;50.570;10.428;2022-11-11T01:33:00;4.50;99.90
60033;DHT22;45905;50.570;10.428;2022-11-11T01:35:46;4.50;99.90
60033;DHT22;45905;50.570;10.428;2022-11-11T01:38:32;4.50;99.90
60033;DHT22;45905;50.570;10.428;2022-11-11T01:41:24;4.50;99.90
60033;DHT22;45905;50.570;10.428;2022-11-11T01:44:45;4.50;99.90
60033;DHT22;45905;50.570;10.428;2022-11-11T01:47:33;4.50;99.90
60033;DHT22;45905;50.570;10.428;2022-11-11T01:50:58;4.40;99.90
60033;DHT22;45905;50.570;10.428;2022-11-11T01:53:48;4.50;99.90
60033;DHT22;45905;50.570;10.428;2022-11-11T01:56:41;4.50;99.90
60033;DHT22;45905;50.570;10.428;2022-11-11T01:59:33;4.40;99.90
60033;DHT22;45905;50.570;10.428;2022-11-11T02:02:25;4.40;99.90
60033;DHT22;45905;50.570;10.428;2022-11-11T02:05:20;4.40;99.90
60033;DHT22;45905;50.570;10.428;2022-11-11T02:08:30;4.40;99.90
60033;DHT22;45905;50.570;10.428;2022-11-11T02:11:21;4.40;99.90
60033;DHT22;45905;50.570;10.428;2022-11-11T02:14:27;4.40;99.90
60033;DHT22;45905;50.570;10.428;2022-11-11T02:17:25;4.40;99.90
60033;DHT22;45905;50.570;10.428;2022-11-11T02:20:21;4.40;99.90
60033;DHT22;45905;50.570;10.428;2022-11-11T02:23:10;4.40;99.90
60033;DHT22;45905;50.570;10.428;2022-11-11T02:26:15;4.30;99.90
60033;DHT22;45905;50.570;10.428;2022-11-11T02:29:07;4.30;99.90
60033;DHT22;45905;50.570;10.428;2022-11-11T02:31:56;4.40;99.90
60033;DHT22;45905;50.570;10.428;2022-11-11T02:34:42;4.30;99.90
60033;DHT22;45905;50.570;10.428;2022-11-11T02:37:28;4.40;99.90
60033;DHT22;45905;50.570;10.428;2022-11-11T02:40:24;4.40;99.90
60033;DHT22;45905;50.570;10.428;2022-11-11T02:43:43;4.30;99.90
60033;DHT22;45905;50.570;10.428;2022-11-11T02:46:29;4.30;99.90
60033;DHT22;45905;50.570;10.428;2022-11-11T02:49:15;4.30;99.90
60033;DHT22;45905;50.570;10.428;2022-11-11T02:52:00;4.40;99.90
60033;DHT22;45905;50.570;10.428;2022-11-11T02:54:47;4.30;99.90
60033;DHT22;45905;50.570;10.428;2022-11-11T02:57:34;4.30;99.90
60033;DHT22;45905;50.570;10.428;2022-11-11T03:00:20;4.20;99.90
60033;DHT22;45905;50.570;10.428;2022-11-11T03:03:05;4.30;99.90
60033;DHT22;45905;50.570;10.428;2022-11-11T03:05:51;4.30;99.90
60033;DHT22;45905;50.570;10.428;2022-11-11T03:08:37;4.30;99.90
60033;DHT22;45905;50.570;10.428;2022-11-11T03:11:23;4.30;99.90
60033;DHT22;45905;50.570;10.428;2022-11-11T03:14:15;4.30;99.90
60033;DHT22;45905;50.570;10.428;2022-11-11T03:17:00;4.30;99.90
60033;DHT22;45905;50.570;10.428;2022-11-11T03:20:08;4.30;99.90
60033;DHT22;45905;50.570;10.428;2022-11-11T03:23:15;4.30;99.90
60033;DHT22;45905;50.570;10.428;2022-11-11T03:26:01;4.30;99.90
60033;DHT22;45905;50.570;10.428;2022-11-11T03:28:46;4.30;99.90
60033;DHT22;45905;50.570;10.428;2022-11-11T03:31:32;4.40;99.90
60033;DHT22;45905;50.570;10.428;2022-11-11T03:34:17;4.40;99.90
60033;DHT22;45905;50.570;10.428;2022-11-11T03:37:08;4.40;99.90
60033;DHT22;45905;50.570;10.428;2022-11-11T03:40:13;4.40;99.90
60033;DHT22;45905;50.570;10.428;2022-11-11T03:42:59;4.40;99.90
60033;DHT22;45905;50.570;10.428;2022-11-11T03:45:49;4.40;99.90
60033;DHT22;45905;50.570;10.428;2022-11-11T03:48:39;4.40;99.90
60033;DHT22;45905;50.570;10.428;2022-11-11T03:51:25;4.50;99.90
60033;DHT22;45905;50.570;10.428;2022-11-11T03:54:11;4.50;99.90
60033;DHT22;45905;50.570;10.428;2022-11-11T03:56:57;4.50;99.90
60033;DHT22;45905;50.570;10.428;2022-11-11T04:00:03;4.50;99.90
60033;DHT22;45905;50.570;10.428;2022-11-11T04:03:18;4.50;99.90
60033;DHT22;45905;50.570;10.428;2022-11-11T04:06:22;4.50;99.90
60033;DHT22;45905;50.570;10.428;2022-11-11T04:09:26;4.50;99.90
60033;DHT22;45905;50.570;10.428;2022-11-11T04:12:31;4.60;99.90
60033;DHT22;45905;50.570;10.428;2022-11-11T04:15:39;4.60;99.90
60033;DHT22;45905;50.570;10.428;2022-11-11T04:18:43;4.60;99.90
60033;DHT22;45905;50.570;10.428;2022-11-11T04:21:48;4.60;99.90
60033;DHT22;45905;50.570;10.428;2022-11-11T04:24:34;4.60;99.90
60033;DHT22;45905;50.570;10.428;2022-11-11T04:27:38;4.60;99.90
60033;DHT22;45905;50.570;10.428;2022-11-11T04:30:24;4.60;99.90
60033;DHT22;45905;50.570;10.428;2022-11-11T04:33:09;4.60;99.90
60033;DHT22;45905;50.570;10.428;2022-11-11T04:35:55;4.60;99.90
60033;DHT22;45905;50.570;10.428;2022-11-11T04:38:40;4.60;99.90
60033;DHT22;45905;50.570;10.428;2022-11-11T04:41:44;4.60;99.90
60033;DHT22;45905;50.570;10.428;2022-11-11T04:44:50;4.60;99.90
60033;DHT22;45905;50.570;10.428;2022-11-11T04:48:03;4.60;99.90
60033;DHT22;45905;50.570;10.428;2022-11-11T04:50:50;4.70;99.90
60033;DHT22;45905;50.570;10.428;2022-11-11T04:53:36;4.60;99.90
60033;DHT22;45905;50.570;10.428;2022-11-11T04:56:21;4.60;99.90
60033;DHT22;45905;50.570;10.428;2022-11-11T04:59:25;4.60;99.90
60033;DHT22;45905;50.570;10.428;2022-11-11T05:02:10;4.60;99.90
60033;DHT22;45905;50.570;10.428;2022-11-11T05:05:14;4.70;99.90
60033;DHT22;45905;50.570;10.428;2022-11-11T05:08:00;4.70;99.90
60033;DHT22;45905;50.570;10.428;2022-11-11T05:11:04;4.70;99.90
60033;DHT22;45905;50.570;10.428;2022-11-11T05:13:51;4.60;99.90
60033;DHT22;45905;50.570;10.428;2022-11-11T05:16:57;4.70;99.90
60033;DHT22;45905;50.570;10.428;2022-11-11T05:20:02;4.70;99.90
60033;DHT22;45905;50.570;10.428;2022-11-11T05:23:07;4.70;99.90
60033;DHT22;45905;50.570;10.428;2022-11-11T05:25:52;4.80;99.90
60033;DHT22;45905;50.570;10.428;2022-11-11T05:28:38;4.80;99.90
60033;DHT22;45905;50.570;10.428;2022-11-11T05:31:23;4.80;99.90
60033;DHT22;45905;50.570;10.428;2022-11-11T05:34:09;4.80;99.90
60033;DHT22;45905;50.570;10.428;2022-11-11T05:36:54;4.80;99.90
60033;DHT22;45905;50.570;10.428;2022-11-11T05:39:40;4.90;99.90
60033;DHT22;45905;50.570;10.428;2022-11-11T05:42:26;4.90;99.90
60033;DHT22;45905;50.570;10.428;2022-11-11T05:45:12;4.90;99.90
60033;DHT22;45905;50.570;10.428;2022-11-11T05:48:01;4.80;99.90
60033;DHT22;45905;50.570;10.428;2022-11-11T05:50:47;4.90;99.90
60033;DHT22;45905;50.570;10.428;2022-11-11T05:53:33;4.90;99.90
60033;DHT22;45905;50.570;10.428;2022-11-11T05:56:18;4.80;99.90
60033;DHT22;45905;50.570;10.428;2022-11-11T05:59:05;4.90;99.90
60033;DHT22;45905;50.570;10.428;2022-11-11T06:01:51;4.90;99.90
60033;DHT22;45905;50.570;10.428;2022-11-11T06:04:36;4.90;99.90
60033;DHT22;45905;50.570;10.428;2022-11-11T06:07:22;4.80;99.90
60033;DHT22;45905;50.570;10.428;2022-11-11T06:10:08;4.80;99.90
60033;DHT22;45905;50.570;10.428;2022-11-11T06:13:13;4.70;99.90
60033;DHT22;45905;50.570;10.428;2022-11-11T06:16:00;4.80;99.90
60033;DHT22;45905;50.570;10.428;2022-11-11T06:18:46;5.00;99.90
60033;DHT22;45905;50.570;10.428;2022-11-11T06:21:32;4.80;99.90
60033;DHT22;45905;50.570;10.428;2022-11-11T06:24:37;4.80;99.90
60033;DHT22;45905;50.570;10.428;2022-11-11T06:27:23;4.80;99.90
60033;DHT22;45905;50.570;10.428;2022-11-11T06:30:09;4.90;99.90
60033;DHT22;45905;50.570;10.428;2022-11-11T06:33:15;4.90;99.90
60033;DHT22;45905;50.570;10.428;2022-11-11T06:36:01;4.90;99.90
60033;DHT22;45905;50.570;10.428;2022-11-11T06:38:47;5.00;99.90
60033;DHT22;45905;50.570;10.428;2022-11-11T06:41:33;4.90;99.90
60033;DHT22;45905;50.570;10.428;2022-11-11T06:44:19;4.90;99.90
60033;DHT22;45905;50.570;10.428;2022-11-11T06:47:04;5.00;99.90
60033;DHT22;45905;50.570;10.428;2022-11-11T06:49:49;5.00;99.90
60033;DHT22;45905;50.570;10.428;2022-11-11T06:52:35;5.00;99.90
60033;DHT22;45905;50.570;10.428;2022-11-11T06:55:21;5.00;99.90
60033;DHT22;45905;50.570;10.428;2022-11-11T06:58:12;5.10;99.90
60033;DHT22;45905;50.570;10.428;2022-11-11T07:01:04;5.10;99.90
60033;DHT22;45905;50.570;10.428;2022-11-11T07:03:50;5.10;99.90
60033;DHT22;45905;50.570;10.428;2022-11-11T07:06:36;5.10;99.90
60033;DHT22;45905;50.570;10.428;2022-11-11T07:09:21;5.20;99.90
60033;DHT22;45905;50.570;10.428;2022-11-11T07:12:09;5.20;99.90
60033;DHT22;45905;50.570;10.428;2022-11-11T07:14:55;5.30;99.90
60033;DHT22;45905;50.570;10.428;2022-11-11T07:17:40;5.30;99.90
60033;DHT22;45905;50.570;10.428;2022-11-11T07:20:27;5.30;99.90
60033;DHT22;45905;50.570;10.428;2022-11-11T07:23:13;5.30;99.90
60033;DHT22;45905;50.570;10.428;2022-11-11T07:25:58;5.30;99.90
60033;DHT22;45905;50.570;10.428;2022-11-11T07:28:44;5.40;99.90
60033;DHT22;45905;50.570;10.428;2022-11-11T07:31:29;5.30;99.90
60033;DHT22;45905;50.570;10.428;2022-11-11T07:34:15;5.40;99.90
60033;DHT22;45905;50.570;10.428;2022-11-11T07:37:01;5.50;99.90
60033;DHT22;45905;50.570;10.428;2022-11-11T07:39:46;5.40;99.90
60033;DHT22;45905;50.570;10.428;2022-11-11T07:42:35;5.50;99.90
60033;DHT22;45905;50.570;10.428;2022-11-11T07:45:21;5.50;99.90
60033;DHT22;45905;50.570;10.428;2022-11-11T07:48:07;5.60;99.90
60033;DHT22;45905;50.570;10.428;2022-11-11T07:50:53;5.60;99.90
60033;DHT22;45905;50.570;10.428;2022-11-11T07:53:42;5.60;99.90
60033;DHT22;45905;50.570;10.428;2022-11-11T07:56:27;5.80;99.90
60033;DHT22;45905;50.570;10.428;2022-11-11T07:59:13;5.90;99.90
60033;DHT22;45905;50.570;10.428;2022-11-11T08:01:59;6.00;99.90
60033;DHT22;45905;50.570;10.428;2022-11-11T08:04:44;6.00;99.90
60033;DHT22;45905;50.570;10.428;2022-11-11T08:07:35;6.10;99.90
60033;DHT22;45905;50.570;10.428;2022-11-11T08:10:21;6.10;99.90
60033;DHT22;45905;50.570;10.428;2022-11-11T08:13:09;6.10;99.90
60033;DHT22;45905;50.570;10.428;2022-11-11T08:16:15;6.10;99.90
60033;DHT22;45905;50.570;10.428;2022-11-11T08:19:01;6.20;99.90
60033;DHT22;45905;50.570;10.428;2022-11-11T08:21:47;6.20;99.90
60033;DHT22;45905;50.570;10.428;2022-11-11T08:24:32;6.20;99.90
60033;DHT22;45905;50.570;10.428;2022-11-11T08:27:38;6.20;99.90
60033;DHT22;45905;50.570;10.428;2022-11-11T08:30:24;6.30;99.90
60033;DHT22;45905;50.570;10.428;2022-11-11T08:33:10;6.30;99.90
60033;DHT22;45905;50.570;10.428;2022-11-11T08:36:16;6.30;99.90
60033;DHT22;45905;50.570;10.428;2022-11-11T08:39:06;6.40;99.90
60033;DHT22;45905;50.570;10.428;2022-11-11T08:41:52;6.40;99.90
60033;DHT22;45905;50.570;10.428;2022-11-11T08:44:38;6.50;99.90
60033;DHT22;45905;50.570;10.428;2022-11-11T08:47:23;6.50;99.90
60033;DHT22;45905;50.570;10.428;2022-11-11T08:50:09;6.50;99.90
60033;DHT22;45905;50.570;10.428;2022-11-11T08:52:56;6.60;99.90
60033;DHT22;45905;50.570;10.428;2022-11-11T08:55:41;6.60;99.90
60033;DHT22;45905;50.570;10.428;2022-11-11T08:58:27;6.60;99.90
60033;DHT22;45905;50.570;10.428;2022-11-11T09:01:13;6.60;99.90
60033;DHT22;45905;50.570;10.428;2022-11-11T09:03:59;6.70;99.90
60033;DHT22;45905;50.570;10.428;2022-11-11T09:07:06;6.70;99.90
60033;DHT22;45905;50.570;10.428;2022-11-11T09:09:53;6.80;99.90
60033;DHT22;45905;50.570;10.428;2022-11-11T09:12:38;6.80;99.90
60033;DHT22;45905;50.570;10.428;2022-11-11T09:15:24;6.80;99.90
60033;DHT22;45905;50.570;10.428;2022-11-11T09:18:10;6.80;99.90
60033;DHT22;45905;50.570;10.428;2022-11-11T09:20:59;6.80;99.90
60033;DHT22;45905;50.570;10.428;2022-11-11T09:23:45;6.80;99.90
60033;DHT22;45905;50.570;10.428;2022-11-11T09:26:30;6.90;99.90
60033;DHT22;45905;50.570;10.428;2022-11-11T09:29:17;6.80;99.90
60033;DHT22;45905;50.570;10.428;2022-11-11T09:32:03;7.00;99.90
60033;DHT22;45905;50.570;10.428;2022-11-11T09:34:49;7.00;99.90
60033;DHT22;45905;50.570;10.428;2022-11-11T09:37:35;7.10;99.90
60033;DHT22;45905;50.570;10.428;2022-11-11T09:40:22;7.10;99.90
60033;DHT22;45905;50.570;10.428;2022-11-11T09:46:54;7.30;99.90
60033;DHT22;45905;50.570;10.428;2022-11-11T09:50:05;7.30;99.90
60033;DHT22;45905;50.570;10.428;2022-11-11T09:53:18;7.40;99.90
60033;DHT22;45905;50.570;10.428;2022-11-11T09:56:21;7.50;99.90
60033;DHT22;45905;50.570;10.428;2022-11-11T09:59:43;7.60;99.90
60033;DHT22;45905;50.570;10.428;2022-11-11T10:02:42;7.60;99.90
60033;DHT22;45905;50.570;10.428;2022-11-11T10:05:38;7.70;99.90
60033;DHT22;45905;50.570;10.428;2022-11-11T10:08:43;7.70;99.90
60033;DHT22;45905;50.570;10.428;2022-11-11T10:14:40;7.80;99.90
60033;DHT22;45905;50.570;10.428;2022-11-11T10:17:38;7.90;99.90
60033;DHT22;45905;50.570;10.428;2022-11-11T10:20:36;7.90;99.90
60033;DHT22;45905;50.570;10.428;2022-11-11T10:23:31;7.90;99.90
60033;DHT22;45905;50.570;10.428;2022-11-11T10:29:21;7.90;99.90
60033;DHT22;45905;50.570;10.428;2022-11-11T10:35:15;8.00;99.90
60033;DHT22;45905;50.570;10.428;2022-11-11T10:44:31;8.00;99.90
60033;DHT22;45905;50.570;10.428;2022-11-11T10:47:46;8.00;99.90
60033;DHT22;45905;50.570;10.428;2022-11-11T10:50:58;8.00;99.90
60033;DHT22;45905;50.570;10.428;2022-11-11T10:57:51;8.10;99.90
60033;DHT22;45905;50.570;10.428;2022-11-11T11:00:40;8.10;99.90
60033;DHT22;45905;50.570;10.428;2022-11-11T11:03:33;8.20;99.90
60033;DHT22;45905;50.570;10.428;2022-11-11T11:06:26;8.20;99.90
60033;DHT22;45905;50.570;10.428;2022-11-11T11:12:51;8.20;99.90
60033;DHT22;45905;50.570;10.428;2022-11-11T11:15:40;8.30;99.90
60033;DHT22;45905;50.570;10.428;2022-11-11T11:18:33;8.30;99.90
60033;DHT22;45905;50.570;10.428;2022-11-11T11:21:26;8.40;99.90
60033;DHT22;45905;50.570;10.428;2022-11-11T11:27:25;8.60;99.90
60033;DHT22;45905;50.570;10.428;2022-11-11T11:33:04;8.80;99.90
60033;DHT22;45905;50.570;10.428;2022-11-11T11:35:53;8.90;99.90
60033;DHT22;45905;50.570;10.428;2022-11-11T11:38:42;9.00;99.90
60033;DHT22;45905;50.570;10.428;2022-11-11T11:41:39;9.10;99.90
60033;DHT22;45905;50.570;10.428;2022-11-11T11:44:32;9.20;99.90
60033;DHT22;45905;50.570;10.428;2022-11-11T11:50:45;9.30;99.90
60033;DHT22;45905;50.570;10.428;2022-11-11T12:00:16;9.60;99.90
60033;DHT22;45905;50.570;10.428;2022-11-11T12:23:06;10.20;99.90
60033;DHT22;45905;50.570;10.428;2022-11-11T12:26:21;10.30;99.90
60033;DHT22;45905;50.570;10.428;2022-11-11T12:29:42;10.40;99.90
60033;DHT22;45905;50.570;10.428;2022-11-11T12:42:31;10.50;99.90
60033;DHT22;45905;50.570;10.428;2022-11-11T12:45:47;10.60;99.90
60033;DHT22;45905;50.570;10.428;2022-11-11T12:58:37;10.60;99.90
60033;DHT22;45905;50.570;10.428;2022-11-11T13:01:37;10.60;99.90
60033;DHT22;45905;50.570;10.428;2022-11-11T13:04:55;10.60;99.90
60033;DHT22;45905;50.570;10.428;2022-11-11T13:11:25;10.60;99.90
60033;DHT22;45905;50.570;10.428;2022-11-11T13:17:26;10.60;99.90
60033;DHT22;45905;50.570;10.428;2022-11-11T13:23:10;10.70;99.90
60033;DHT22;45905;50.570;10.428;2022-11-11T13:26:01;10.70;99.90
60033;DHT22;45905;50.570;10.428;2022-11-11T13:29:04;10.80;99.90
60033;DHT22;45905;50.570;10.428;2022-11-11T13:32:04;10.80;99.90
60033;DHT22;45905;50.570;10.428;2022-11-11T13:34:58;10.80;99.90
60033;DHT22;45905;50.570;10.428;2022-11-11T13:37:44;10.80;99.90
60033;DHT22;45905;50.570;10.428;2022-11-11T13:40:41;10.80;99.90
60033;DHT22;45905;50.570;10.428;2022-11-11T13:43:40;10.90;99.90
60033;DHT22;45905;50.570;10.428;2022-11-11T13:49:52;10.90;99.90
60033;DHT22;45905;50.570;10.428;2022-11-11T13:53:02;11.00;99.90
60033;DHT22;45905;50.570;10.428;2022-11-11T13:56:03;11.00;99.90
60033;DHT22;45905;50.570;10.428;2022-11-11T13:58:50;11.00;99.90
60033;DHT22;45905;50.570;10.428;2022-11-11T14:01:39;11.10;99.90
60033;DHT22;45905;50.570;10.428;2022-11-11T14:04:27;11.10;99.90
60033;DHT22;45905;50.570;10.428;2022-11-11T14:16:09;10.90;99.50
60033;DHT22;45905;50.570;10.428;2022-11-11T14:18:56;10.80;99.60
60033;DHT22;45905;50.570;10.428;2022-11-11T14:21:43;10.60;99.40
60033;DHT22;45905;50.570;10.428;2022-11-11T14:24:41;10.50;99.70
60033;DHT22;45905;50.570;10.428;2022-11-11T14:27:31;10.40;99.80
60033;DHT22;45905;50.570;10.428;2022-11-11T14:30:36;10.40;99.90
60033;DHT22;45905;50.570;10.428;2022-11-11T14:33:37;10.40;99.90
60033;DHT22;45905;50.570;10.428;2022-11-11T14:39:38;10.30;99.90
60033;DHT22;45905;50.570;10.428;2022-11-11T14:48:57;10.10;99.90
60033;DHT22;45905;50.570;10.428;2022-11-11T14:51:50;10.00;99.90
60033;DHT22;45905;50.570;10.428;2022-11-11T14:57:54;9.90;99.90
60033;DHT22;45905;50.570;10.428;2022-11-11T15:03:44;9.80;99.90
60033;DHT22;45905;50.570;10.428;2022-11-11T15:09:35;9.70;99.90
60033;DHT22;45905;50.570;10.428;2022-11-11T15:12:33;9.70;99.90
60033;DHT22;45905;50.570;10.428;2022-11-11T15:16:12;9.60;99.90
60033;DHT22;45905;50.570;10.428;2022-11-11T15:26:00;9.50;99.90
60033;DHT22;45905;50.570;10.428;2022-11-11T15:32:13;9.40;99.90
60033;DHT22;45905;50.570;10.428;2022-11-11T15:38:44;9.20;99.90
60033;DHT22;45905;50.570;10.428;2022-11-11T15:41:41;9.10;99.90
60033;DHT22;45905;50.570;10.428;2022-11-11T15:44:30;9.10;99.90
60033;DHT22;45905;50.570;10.428;2022-11-11T15:47:20;9.00;99.90
60033;DHT22;45905;50.570;10.428;2022-11-11T15:50:32;9.00;99.90
60033;DHT22;45905;50.570;10.428;2022-11-11T15:53:25;8.90;99.90
60033;DHT22;45905;50.570;10.428;2022-11-11T15:56:28;8.80;99.90
60033;DHT22;45905;50.570;10.428;2022-11-11T15:59:29;8.80;99.90
60033;DHT22;45905;50.570;10.428;2022-11-11T16:02:19;8.70;99.90
60033;DHT22;45905;50.570;10.428;2022-11-11T16:05:23;8.70;99.90
60033;DHT22;45905;50.570;10.428;2022-11-11T16:08:16;8.60;99.90
60033;DHT22;45905;50.570;10.428;2022-11-11T16:11:11;8.60;99.90
60033;DHT22;45905;50.570;10.428;2022-11-11T16:14:02;8.50;99.90
60033;DHT22;45905;50.570;10.428;2022-11-11T16:16:55;8.50;99.90
60033;DHT22;45905;50.570;10.428;2022-11-11T16:19:45;8.50;99.90
60033;DHT22;45905;50.570;10.428;2022-11-11T16:22:36;8.40;99.90
60033;DHT22;45905;50.570;10.428;2022-11-11T16:25:24;8.40;99.90
60033;DHT22;45905;50.570;10.428;2022-11-11T16:28:11;8.30;99.90
60033;DHT22;45905;50.570;10.428;2022-11-11T16:30:58;8.30;99.90
60033;DHT22;45905;50.570;10.428;2022-11-11T16:33:44;8.20;99.90
60033;DHT22;45905;50.570;10.428;2022-11-11T16:36:29;8.20;99.90
60033;DHT22;45905;50.570;10.428;2022-11-11T16:39:19;8.20;99.90
60033;DHT22;45905;50.570;10.428;2022-11-11T16:42:22;8.10;99.90
60033;DHT22;45905;50.570;10.428;2022-11-11T16:45:27;8.10;99.90
60033;DHT22;45905;50.570;10.428;2022-11-11T16:48:38;8.00;99.90
60033;DHT22;45905;50.570;10.428;2022-11-11T16:51:44;8.00;99.90
60033;DHT22;45905;50.570;10.428;2022-11-11T16:54:36;8.00;99.90
60033;DHT22;45905;50.570;10.428;2022-11-11T16:57:29;7.90;99.90
60033;DHT22;45905;50.570;10.428;2022-11-11T17:00:22;7.90;99.90
60033;DHT22;45905;50.570;10.428;2022-11-11T17:06:07;7.80;99.90
60033;DHT22;45905;50.570;10.428;2022-11-11T17:08:53;7.80;99.90
60033;DHT22;45905;50.570;10.428;2022-11-11T17:14:26;7.70;99.90
60033;DHT22;45905;50.570;10.428;2022-11-11T17:17:13;7.70;99.90
60033;DHT22;45905;50.570;10.428;2022-11-11T17:20:02;7.70;99.90
60033;DHT22;45905;50.570;10.428;2022-11-11T17:22:53;7.70;99.90
60033;DHT22;45905;50.570;10.428;2022-11-11T17:25:40;7.60;99.90
60033;DHT22;45905;50.570;10.428;2022-11-11T17:28:29;7.60;99.90
60033;DHT22;45905;50.570;10.428;2022-11-11T17:31:16;7.60;99.90
60033;DHT22;45905;50.570;10.428;2022-11-11T17:34:09;7.60;99.90
60033;DHT22;45905;50.570;10.428;2022-11-11T17:36:55;7.50;99.90
60033;DHT22;45905;50.570;10.428;2022-11-11T17:39:41;7.50;99.90
60033;DHT22;45905;50.570;10.428;2022-11-11T17:42:29;7.50;99.90
60033;DHT22;45905;50.570;10.428;2022-11-11T17:45:15;7.50;99.90
60033;DHT22;45905;50.570;10.428;2022-11-11T17:48:01;7.50;99.90
60033;DHT22;45905;50.570;10.428;2022-11-11T17:50:47;7.40;99.90
60033;DHT22;45905;50.570;10.428;2022-11-11T17:53:34;7.50;99.90
60033;DHT22;45905;50.570;10.428;2022-11-11T17:56:21;7.40;99.90
60033;DHT22;45905;50.570;10.428;2022-11-11T17:59:07;7.40;99.90
60033;DHT22;45905;50.570;10.428;2022-11-11T18:01:53;7.40;99.90
60033;DHT22;45905;50.570;10.428;2022-11-11T18:04:39;7.40;99.90
60033;DHT22;45905;50.570;10.428;2022-11-11T18:07:25;7.30;99.90
60033;DHT22;45905;50.570;10.428;2022-11-11T18:10:11;7.30;99.90
60033;DHT22;45905;50.570;10.428;2022-11-11T18:12:58;7.30;99.90
60033;DHT22;45905;50.570;10.428;2022-11-11T18:15:43;7.30;99.90
60033;DHT22;45905;50.570;10.428;2022-11-11T18:18:29;7.30;99.90
60033;DHT22;45905;50.570;10.428;2022-11-11T18:21:16;7.20;99.90
60033;DHT22;45905;50.570;10.428;2022-11-11T18:24:05;7.20;99.90
60033;DHT22;45905;50.570;10.428;2022-11-11T18:26:51;7.20;99.90
60033;DHT22;45905;50.570;10.428;2022-11-11T18:29:37;7.20;99.90
60033;DHT22;45905;50.570;10.428;2022-11-11T18:32:23;7.20;99.90
60033;DHT22;45905;50.570;10.428;2022-11-11T18:35:08;7.10;99.90
60033;DHT22;45905;50.570;10.428;2022-11-11T18:37:55;7.10;99.90
60033;DHT22;45905;50.570;10.428;2022-11-11T18:40:41;7.10;99.90
60033;DHT22;45905;50.570;10.428;2022-11-11T18:43:26;7.10;99.90
60033;DHT22;45905;50.570;10.428;2022-11-11T18:46:17;7.00;99.90
60033;DHT22;45905;50.570;10.428;2022-11-11T18:49:05;7.00;99.90
60033;DHT22;45905;50.570;10.428;2022-11-11T18:51:51;7.00;99.90
60033;DHT22;45905;50.570;10.428;2022-11-11T18:54:38;6.90;99.90
60033;DHT22;45905;50.570;10.428;2022-11-11T18:57:23;6.90;99.90
60033;DHT22;45905;50.570;10.428;2022-11-11T19:00:10;6.90;99.90
60033;DHT22;45905;50.570;10.428;2022-11-11T19:02:56;6.80;99.90
60033;DHT22;45905;50.570;10.428;2022-11-11T19:05:41;6.80;99.90
60033;DHT22;45905;50.570;10.428;2022-11-11T19:08:29;6.80;99.90
60033;DHT22;45905;50.570;10.428;2022-11-11T19:11:15;6.80;99.90
60033;DHT22;45905;50.570;10.428;2022-11-11T19:14:01;6.80;99.90
60033;DHT22;45905;50.570;10.428;2022-11-11T19:16:47;6.80;99.90
60033;DHT22;45905;50.570;10.428;2022-11-11T19:19:33;6.80;99.90
60033;DHT22;45905;50.570;10.428;2022-11-11T19:22:18;6.70;99.90
60033;DHT22;45905;50.570;10.428;2022-11-11T19:25:04;6.70;99.90
60033;DHT22;45905;50.570;10.428;2022-11-11T19:27:53;6.70;99.90
60033;DHT22;45905;50.570;10.428;2022-11-11T19:30:39;6.70;99.90
60033;DHT22;45905;50.570;10.428;2022-11-11T19:33:25;6.70;99.90
60033;DHT22;45905;50.570;10.428;2022-11-11T19:36:14;6.60;99.90
60033;DHT22;45905;50.570;10.428;2022-11-11T19:39:03;6.60;99.90
60033;DHT22;45905;50.570;10.428;2022-11-11T19:41:49;6.60;99.90
60033;DHT22;45905;50.570;10.428;2022-11-11T19:44:35;6.50;99.90
60033;DHT22;45905;50.570;10.428;2022-11-11T19:47:21;6.50;99.90
60033;DHT22;45905;50.570;10.428;2022-11-11T19:50:07;6.50;99.90
60033;DHT22;45905;50.570;10.428;2022-11-11T19:52:53;6.40;99.90
60033;DHT22;45905;50.570;10.428;2022-11-11T19:55:39;6.40;99.90
60033;DHT22;45905;50.570;10.428;2022-11-11T19:58:26;6.30;99.90
60033;DHT22;45905;50.570;10.428;2022-11-11T20:01:17;6.40;99.90
60033;DHT22;45905;50.570;10.428;2022-11-11T20:04:04;6.40;99.90
60033;DHT22;45905;50.570;10.428;2022-11-11T20:06:50;6.40;99.90
60033;DHT22;45905;50.570;10.428;2022-11-11T20:09:36;6.40;99.90
60033;DHT22;45905;50.570;10.428;2022-11-11T20:12:21;6.40;99.90
60033;DHT22;45905;50.570;10.428;2022-11-11T20:15:07;6.30;99.90
60033;DHT22;45905;50.570;10.428;2022-11-11T20:17:54;6.30;99.90
60033;DHT22;45905;50.570;10.428;2022-11-11T20:20:39;6.30;99.90
60033;DHT22;45905;50.570;10.428;2022-11-11T20:23:25;6.30;99.90
60033;DHT22;45905;50.570;10.428;2022-11-11T20:26:13;6.30;99.90